Time;durP1;ratioP1;P1;durP2;ratioP2;P2;SDS_P1;SDS_P2;PMS_P1;PMS_P2;Temp;Humidity;BMP_temperature;BMP_pressure;BME280_temperature;BME280_humidity;BME280_pressure;Samples;Min_cycle;Max_cycle;Signal;HPM_P1;HPM_P2
2021/08/14 00:02:23;;;;;;;3.90;3.50;;;25.00;64.20;;;;;;4983546;28;20391;-64
2021/08/14 00:04:48;;;;;;;3.75;3.35;;;25.00;64.20;;;;;;4986036;28;20394;-64
2021/08/14 00:07:14;;;;;;;4.23;3.43;;;25.00;64.20;;;;;;4983397;28;20436;-64
2021/08/14 00:09:40;;;;;;;4.10;3.70;;;25.00;64.20;;;;;;4983167;28;20398;-64
2021/08/14 00:12:06;;;;;;;4.40;3.87;;;25.00;64.20;;;;;;4987426;28;20889;-64
2021/08/14 00:14:32;;;;;;;4.00;3.60;;;25.00;64.10;;;;;;4988039;28;20446;-64
2021/08/14 00:16:57;;;;;;;4.55;3.42;;;25.00;64.10;;;;;;4983109;28;20832;-64
2021/08/14 00:19:23;;;;;;;4.07;3.47;;;25.00;64.20;;;;;;4987989;28;20410;-64
2021/08/14 00:21:49;;;;;;;3.97;3.40;;;25.00;64.20;;;;;;4988283;28;20429;-64
2021/08/14 00:24:15;;;;;;;5.30;3.50;;;25.00;64.10;;;;;;4983210;28;20399;-64
2021/08/14 00:26:40;;;;;;;3.90;3.40;;;25.00;64.20;;;;;;4983267;28;20874;-64
2021/08/14 00:29:06;;;;;;;4.27;3.43;;;25.00;64.20;;;;;;4989007;28;20430;-64
2021/08/14 00:31:34;;;;;;;4.72;3.63;;;25.00;64.20;;;;;;4983949;28;20446;-64
2021/08/14 00:33:59;;;;;;;3.70;3.00;;;25.00;64.20;;;;;;4983156;28;20658;-64
2021/08/14 00:36:25;;;;;;;3.90;3.50;;;25.00;64.20;;;;;;4984596;28;20396;-64
2021/08/14 00:38:50;;;;;;;4.20;3.40;;;25.00;64.30;;;;;;4985129;28;20399;-64
2021/08/14 00:41:16;;;;;;;4.33;3.40;;;25.00;64.20;;;;;;4982924;28;20489;-64
2021/08/14 00:43:45;;;;;;;5.38;3.47;;;25.00;64.20;;;;;;4988279;28;20430;-64
2021/08/14 00:46:11;;;;;;;4.32;3.35;;;25.00;64.20;;;;;;4994300;28;20385;-64
2021/08/14 00:48:37;;;;;;;4.07;3.42;;;25.00;64.20;;;;;;4989531;28;20406;-64
2021/08/14 00:51:09;;;;;;;3.83;3.30;;;25.00;64.20;;;;;;4989527;28;20448;-64
2021/08/14 00:53:36;;;;;;;3.83;3.43;;;25.00;64.20;;;;;;4989898;28;20859;-64
2021/08/14 00:56:02;;;;;;;4.28;3.25;;;25.00;64.20;;;;;;4992765;28;20401;-64
2021/08/14 00:58:28;;;;;;;4.18;3.55;;;25.00;64.20;;;;;;4987082;28;20450;-64
2021/08/14 01:00:56;;;;;;;4.03;3.40;;;25.00;64.20;;;;;;4991153;28;20747;-64
2021/08/14 01:03:26;;;;;;;4.40;3.70;;;24.90;64.20;;;;;;4994558;28;20397;-64
2021/08/14 01:05:52;;;;;;;3.95;3.45;;;25.00;64.20;;;;;;4990173;28;20386;-65
2021/08/14 01:08:18;;;;;;;4.10;3.53;;;24.90;64.20;;;;;;4994199;28;20406;-64
2021/08/14 01:10:44;;;;;;;3.97;3.42;;;24.90;64.20;;;;;;4994893;28;20396;-65
2021/08/14 01:13:10;;;;;;;4.43;3.63;;;24.90;64.20;;;;;;4996591;28;20388;-64
2021/08/14 01:15:42;;;;;;;4.72;3.70;;;24.90;64.10;;;;;;4985654;28;20398;-65
2021/08/14 01:18:12;;;;;;;4.77;3.60;;;24.90;64.20;;;;;;4985936;28;20462;-64
2021/08/14 01:20:39;;;;;;;4.03;3.55;;;24.90;64.20;;;;;;4992202;28;20410;-64
2021/08/14 01:23:05;;;;;;;4.40;3.50;;;24.90;64.10;;;;;;4992083;28;20795;-64
2021/08/14 01:25:31;;;;;;;4.10;3.33;;;24.90;64.20;;;;;;4989619;28;20458;-64
2021/08/14 01:27:56;;;;;;;3.93;3.20;;;24.90;64.20;;;;;;4986267;28;20489;-64
2021/08/14 01:30:22;;;;;;;4.35;3.40;;;24.90;64.20;;;;;;4986312;28;20754;-64
2021/08/14 01:32:48;;;;;;;4.23;3.13;;;24.90;64.20;;;;;;4987274;28;20386;-64
2021/08/14 01:35:13;;;;;;;4.40;3.40;;;24.90;64.20;;;;;;4987190;28;20402;-64
2021/08/14 01:37:39;;;;;;;4.78;3.40;;;24.90;64.20;;;;;;4987005;28;20424;-64
2021/08/14 01:40:06;;;;;;;4.20;3.20;;;24.90;64.20;;;;;;4985628;28;20401;-64
2021/08/14 01:42:32;;;;;;;3.97;3.25;;;24.90;64.20;;;;;;4992004;28;20399;-64
2021/08/14 01:44:57;;;;;;;4.15;3.30;;;24.90;64.20;;;;;;4985586;28;20385;-64
2021/08/14 01:47:23;;;;;;;4.73;3.43;;;24.90;64.20;;;;;;4992095;28;20445;-64
2021/08/14 01:49:49;;;;;;;4.53;3.35;;;24.90;64.20;;;;;;4994882;28;20400;-64
2021/08/14 01:52:17;;;;;;;4.57;3.40;;;24.90;64.20;;;;;;4990404;28;20490;-64
2021/08/14 01:54:45;;;;;;;4.78;3.40;;;24.90;64.20;;;;;;4990078;28;20437;-65
2021/08/14 01:57:11;;;;;;;4.30;3.33;;;24.90;64.20;;;;;;4989631;28;20405;-64
2021/08/14 01:59:37;;;;;;;3.83;3.10;;;24.90;64.30;;;;;;4988147;28;20398;-64
2021/08/14 02:02:03;;;;;;;4.43;3.53;;;24.90;64.20;;;;;;4985301;28;20476;-64
2021/08/14 02:04:29;;;;;;;4.72;3.47;;;24.80;64.20;;;;;;4985340;28;20405;-64
2021/08/14 02:06:56;;;;;;;4.38;3.38;;;24.90;64.20;;;;;;4985062;28;20382;-64
2021/08/14 02:09:22;;;;;;;4.57;3.30;;;24.90;64.20;;;;;;4989531;28;20402;-64
2021/08/14 02:11:48;;;;;;;4.20;3.38;;;24.90;64.20;;;;;;4988685;28;20750;-64
2021/08/14 02:14:14;;;;;;;4.55;3.40;;;24.90;64.20;;;;;;4985558;28;20453;-64
2021/08/14 02:16:39;;;;;;;4.18;3.40;;;24.80;64.20;;;;;;4996131;28;20391;-64
2021/08/14 02:19:05;;;;;;;4.07;3.30;;;24.80;64.20;;;;;;4990462;28;20426;-65
2021/08/14 02:21:32;;;;;;;3.88;2.95;;;24.80;64.10;;;;;;4990843;28;20440;-64
2021/08/14 02:23:58;;;;;;;4.00;3.20;;;24.80;64.00;;;;;;4982088;28;20402;-64
2021/08/14 02:26:25;;;;;;;3.95;3.05;;;24.80;64.00;;;;;;4990145;28;20385;-64
2021/08/14 02:28:50;;;;;;;3.85;3.10;;;24.80;64.10;;;;;;4994434;28;20398;-64
2021/08/14 02:31:16;;;;;;;4.27;3.17;;;24.80;64.10;;;;;;4994553;28;20927;-64
2021/08/14 02:33:42;;;;;;;3.60;3.15;;;24.80;64.00;;;;;;4991874;28;20523;-64
2021/08/14 02:36:09;;;;;;;4.40;3.30;;;24.80;64.10;;;;;;4988982;28;20838;-64
2021/08/14 02:38:36;;;;;;;4.40;3.42;;;24.80;64.10;;;;;;4989748;28;20430;-64
2021/08/14 02:41:02;;;;;;;4.60;3.60;;;24.80;64.20;;;;;;4990026;28;20430;-64
2021/08/14 02:43:28;;;;;;;5.10;3.40;;;24.80;64.40;;;;;;4996351;28;20405;-64
2021/08/14 02:45:54;;;;;;;4.90;3.50;;;24.80;64.40;;;;;;4990077;28;20743;-64
2021/08/14 02:48:20;;;;;;;4.10;3.20;;;24.80;64.40;;;;;;4996352;28;20395;-64
2021/08/14 02:50:47;;;;;;;5.03;3.45;;;24.80;64.40;;;;;;4990863;28;20391;-64
2021/08/14 02:53:13;;;;;;;4.13;3.33;;;24.80;64.40;;;;;;4984251;28;20394;-64
2021/08/14 02:55:40;;;;;;;4.80;3.25;;;24.80;64.50;;;;;;4996307;28;20398;-64
2021/08/14 02:58:06;;;;;;;5.40;3.40;;;24.80;64.40;;;;;;4989540;28;20805;-64
2021/08/14 03:00:32;;;;;;;4.13;3.40;;;24.80;64.50;;;;;;4994973;28;20442;-64
2021/08/14 03:02:57;;;;;;;4.63;3.20;;;24.80;64.50;;;;;;4990306;28;21422;-64
2021/08/14 03:05:23;;;;;;;4.10;3.20;;;24.80;64.40;;;;;;4992447;28;20394;-64
2021/08/14 03:07:49;;;;;;;6.22;3.58;;;24.80;64.40;;;;;;4989807;28;20398;-64
2021/08/14 03:10:15;;;;;;;6.17;3.90;;;24.80;64.80;;;;;;4992402;28;20457;-64
2021/08/14 03:12:40;;;;;;;6.38;4.40;;;24.80;64.80;;;;;;4990969;28;20405;-64
2021/08/14 03:15:07;;;;;;;7.07;4.60;;;24.80;64.90;;;;;;4990155;28;20963;-64
2021/08/14 03:17:33;;;;;;;6.00;4.57;;;24.80;64.70;;;;;;4994502;28;20448;-65
2021/08/14 03:20:03;;;;;;;7.83;4.93;;;24.80;64.80;;;;;;4995585;28;20444;-64
2021/08/14 03:22:28;;;;;;;7.22;4.90;;;24.80;65.40;;;;;;4995569;28;20770;-64
2021/08/14 03:24:54;;;;;;;7.20;4.87;;;24.80;65.20;;;;;;4989137;28;20386;-64
2021/08/14 03:27:20;;;;;;;7.88;4.75;;;24.80;65.00;;;;;;4988152;28;20410;-64
2021/08/14 03:29:45;;;;;;;7.67;4.77;;;24.70;65.90;;;;;;4987207;28;20889;-64
2021/08/14 03:32:11;;;;;;;8.02;4.60;;;24.80;65.80;;;;;;4989111;28;20759;-64
2021/08/14 03:34:37;;;;;;;8.10;4.70;;;24.80;66.10;;;;;;4989517;28;20399;-64
2021/08/14 03:37:03;;;;;;;9.10;4.60;;;24.80;66.10;;;;;;4982725;28;20779;-64
2021/08/14 03:39:28;;;;;;;6.00;4.10;;;24.90;66.20;;;;;;4993798;28;20407;-63
2021/08/14 03:41:54;;;;;;;6.93;3.50;;;24.90;64.90;;;;;;4987101;28;20396;-63
2021/08/14 03:44:20;;;;;;;5.43;3.57;;;25.00;63.70;;;;;;4988869;28;20484;-63
2021/08/14 03:46:45;;;;;;;7.60;3.85;;;25.00;63.40;;;;;;4992298;28;20871;-63
2021/08/14 03:49:11;;;;;;;5.88;3.63;;;25.00;63.40;;;;;;4992944;28;20392;-63
2021/08/14 03:51:37;;;;;;;5.93;4.03;;;25.00;63.50;;;;;;4989162;28;20409;-63
2021/08/14 03:54:02;;;;;;;6.90;4.28;;;25.10;63.90;;;;;;4990709;28;20394;-63
2021/08/14 03:56:28;;;;;;;7.03;4.00;;;25.00;64.00;;;;;;4990149;28;20389;-64
2021/08/14 03:58:54;;;;;;;8.18;4.47;;;25.00;64.10;;;;;;4989500;28;20451;-63
2021/08/14 04:01:19;;;;;;;8.10;4.50;;;25.00;63.90;;;;;;4982898;28;20472;-63
2021/08/14 04:03:45;;;;;;;7.68;4.47;;;25.00;63.80;;;;;;4988698;28;20409;-63
2021/08/14 04:06:11;;;;;;;7.70;4.23;;;25.10;63.90;;;;;;4989329;28;20517;-63
2021/08/14 04:08:36;;;;;;;6.20;4.35;;;25.10;64.00;;;;;;4993637;28;20404;-63
2021/08/14 04:11:06;;;;;;;6.15;3.83;;;25.10;63.90;;;;;;4988760;28;20388;-63
2021/08/14 04:13:31;;;;;;;8.02;4.25;;;25.10;63.90;;;;;;4990806;28;20386;-63
2021/08/14 04:15:57;;;;;;;5.93;3.70;;;25.10;63.80;;;;;;4989957;28;20413;-63
2021/08/14 04:18:23;;;;;;;7.33;4.00;;;25.00;63.70;;;;;;4988912;28;20427;-63
2021/08/14 04:20:48;;;;;;;7.57;4.20;;;25.00;63.80;;;;;;4987073;28;20955;-64
2021/08/14 04:23:14;;;;;;;6.78;4.00;;;25.00;63.80;;;;;;4992591;28;20391;-63
2021/08/14 04:25:40;;;;;;;8.80;4.07;;;25.00;63.80;;;;;;4992089;28;20385;-63
2021/08/14 04:28:05;;;;;;;8.07;4.05;;;25.00;64.10;;;;;;4989957;28;20398;-63
2021/08/14 04:30:31;;;;;;;7.33;3.93;;;25.00;63.90;;;;;;4996507;28;20393;-63
2021/08/14 04:32:57;;;;;;;7.63;4.23;;;25.00;64.10;;;;;;4992966;28;20394;-63
2021/08/14 04:35:22;;;;;;;8.10;4.35;;;25.00;64.10;;;;;;4990590;28;20883;-63
2021/08/14 04:37:49;;;;;;;9.30;4.10;;;25.00;63.90;;;;;;4986278;28;21017;-64
2021/08/14 04:40:16;;;;;;;8.87;4.20;;;25.00;64.00;;;;;;4998611;28;20392;-63
2021/08/14 04:42:42;;;;;;;9.85;4.43;;;24.90;63.90;;;;;;4995725;28;20393;-65
2021/08/14 04:45:09;;;;;;;8.00;3.90;;;24.90;64.10;;;;;;4987417;28;20449;-64
2021/08/14 04:47:35;;;;;;;8.32;4.35;;;24.90;64.40;;;;;;4992624;28;20484;-64
2021/08/14 04:50:00;;;;;;;8.68;4.25;;;24.80;64.50;;;;;;4991973;28;21302;-64
2021/08/14 04:52:26;;;;;;;8.80;4.22;;;24.80;64.50;;;;;;4990494;28;20409;-64
2021/08/14 04:54:52;;;;;;;7.72;4.57;;;24.80;64.40;;;;;;4997331;28;20417;-63
2021/08/14 04:57:18;;;;;;;7.47;4.40;;;24.80;64.40;;;;;;4994346;28;20481;-64
2021/08/14 04:59:43;;;;;;;7.85;4.15;;;24.80;64.50;;;;;;4994859;28;20394;-64
2021/08/14 05:02:09;;;;;;;6.40;4.00;;;24.80;64.40;;;;;;4987248;28;20391;-64
2021/08/14 05:04:35;;;;;;;8.50;3.57;;;24.80;64.50;;;;;;4988473;28;20467;-64
2021/08/14 05:07:00;;;;;;;7.03;3.60;;;24.80;64.40;;;;;;4994440;28;20394;-64
2021/08/14 05:09:27;;;;;;;8.20;4.07;;;24.80;64.40;;;;;;4991569;28;20398;-64
2021/08/14 05:11:52;;;;;;;8.03;4.23;;;24.80;64.30;;;;;;4996127;28;21045;-63
2021/08/14 05:14:18;;;;;;;6.93;3.58;;;24.80;64.40;;;;;;4992292;28;20386;-64
2021/08/14 05:16:44;;;;;;;6.93;3.60;;;24.80;64.30;;;;;;4990620;28;20398;-63
2021/08/14 05:19:09;;;;;;;6.25;3.75;;;24.80;64.30;;;;;;4985895;28;20457;-64
2021/08/14 05:21:35;;;;;;;5.97;3.53;;;24.80;64.40;;;;;;4991884;28;20522;-64
2021/08/14 05:24:04;;;;;;;13.18;3.90;;;24.80;64.40;;;;;;4991066;28;20721;-63
2021/08/14 05:26:30;;;;;;;5.30;3.35;;;24.80;64.40;;;;;;4988824;28;20418;-64
2021/08/14 05:28:56;;;;;;;5.83;3.50;;;24.80;64.40;;;;;;4992073;28;20390;-64
2021/08/14 05:31:22;;;;;;;5.07;3.90;;;24.80;64.40;;;;;;4990709;28;20829;-63
2021/08/14 05:33:48;;;;;;;5.50;3.58;;;24.80;64.30;;;;;;4985689;28;20417;-63
2021/08/14 05:36:14;;;;;;;5.33;3.60;;;24.80;64.40;;;;;;4989142;28;20400;-64
2021/08/14 05:38:39;;;;;;;5.40;3.38;;;24.80;64.30;;;;;;4994026;28;20790;-64
2021/08/14 05:41:06;;;;;;;5.80;3.50;;;24.80;64.40;;;;;;4991487;28;20481;-64
2021/08/14 05:43:31;;;;;;;4.82;3.40;;;24.70;64.30;;;;;;4990394;28;20501;-63
2021/08/14 05:45:57;;;;;;;4.78;3.60;;;24.70;64.30;;;;;;4990302;28;20391;-63
2021/08/14 05:48:23;;;;;;;5.33;3.40;;;24.70;64.30;;;;;;4992078;28;20446;-64
2021/08/14 05:50:48;;;;;;;6.20;3.38;;;24.70;64.30;;;;;;4990923;28;20751;-64
2021/08/14 05:53:15;;;;;;;5.83;3.43;;;24.70;64.40;;;;;;4996218;28;20397;-63
2021/08/14 05:55:41;;;;;;;4.67;3.33;;;24.70;64.30;;;;;;4996148;28;20455;-64
2021/08/14 05:58:07;;;;;;;5.40;3.45;;;24.70;64.30;;;;;;4990842;28;20422;-64
2021/08/14 06:00:34;;;;;;;4.40;3.50;;;24.70;64.20;;;;;;4991258;28;20390;-63
2021/08/14 06:02:59;;;;;;;5.67;3.20;;;24.70;64.30;;;;;;4986288;28;20521;-63
2021/08/14 06:05:25;;;;;;;4.43;3.45;;;24.70;64.40;;;;;;4990628;28;20393;-63
2021/08/14 06:07:51;;;;;;;4.40;3.03;;;24.70;64.40;;;;;;4990116;28;20407;-63
2021/08/14 06:10:19;;;;;;;4.93;3.53;;;24.70;64.90;;;;;;4985824;28;20474;-64
2021/08/14 06:12:45;;;;;;;4.97;3.10;;;24.70;64.20;;;;;;4992443;28;20399;-64
2021/08/14 06:15:12;;;;;;;4.95;3.20;;;24.70;64.30;;;;;;4992506;28;20398;-64
2021/08/14 06:17:38;;;;;;;5.82;3.22;;;24.70;64.20;;;;;;4986076;28;21017;-64
2021/08/14 06:20:05;;;;;;;4.47;3.22;;;24.70;64.30;;;;;;4987511;28;20459;-63
2021/08/14 06:22:35;;;;;;;4.95;3.28;;;24.70;64.30;;;;;;4993338;28;20391;-63
2021/08/14 06:25:04;;;;;;;4.47;3.20;;;24.70;64.40;;;;;;4990756;28;20427;-64
2021/08/14 06:27:30;;;;;;;4.50;3.40;;;24.70;64.90;;;;;;4993019;28;20422;-64
2021/08/14 06:29:55;;;;;;;4.95;3.50;;;24.70;64.40;;;;;;4993439;28;20392;-63
2021/08/14 06:32:21;;;;;;;4.73;3.30;;;24.80;64.40;;;;;;4990058;28;20402;-63
2021/08/14 06:34:46;;;;;;;5.22;3.25;;;24.70;64.30;;;;;;4990363;28;20478;-64
2021/08/14 06:37:12;;;;;;;5.10;3.10;;;24.70;64.40;;;;;;4990459;28;20486;-63
2021/08/14 06:39:38;;;;;;;4.33;3.00;;;24.80;64.40;;;;;;4995998;28;20404;-63
2021/08/14 06:42:04;;;;;;;4.13;3.20;;;24.80;64.40;;;;;;4989432;28;20473;-64
2021/08/14 06:44:30;;;;;;;4.45;3.00;;;24.80;64.40;;;;;;4994487;28;20411;-63
2021/08/14 06:46:56;;;;;;;4.27;3.30;;;24.80;64.30;;;;;;4993929;28;20853;-63
2021/08/14 06:49:22;;;;;;;3.90;3.25;;;24.80;64.20;;;;;;4996394;28;20397;-63
2021/08/14 06:51:48;;;;;;;5.10;3.23;;;24.80;64.30;;;;;;4989694;28;20946;-63
2021/08/14 06:54:14;;;;;;;4.88;3.50;;;24.80;64.40;;;;;;4989530;28;20415;-63
2021/08/14 06:56:39;;;;;;;4.38;3.20;;;24.80;64.40;;;;;;4987282;28;20390;-64
2021/08/14 06:59:05;;;;;;;4.90;3.20;;;24.80;64.30;;;;;;4991825;28;20440;-64
2021/08/14 07:01:31;;;;;;;5.83;3.40;;;24.80;64.30;;;;;;4985452;28;20395;-63
2021/08/14 07:03:56;;;;;;;5.47;3.10;;;24.80;64.30;;;;;;4985389;28;20410;-63
2021/08/14 07:06:24;;;;;;;4.60;3.30;;;24.80;64.30;;;;;;4986510;28;20802;-63
2021/08/14 07:08:50;;;;;;;4.50;3.30;;;24.80;64.40;;;;;;4994472;28;20413;-63
2021/08/14 07:11:19;;;;;;;4.07;3.10;;;24.80;64.30;;;;;;4995961;28;20897;-64
2021/08/14 07:13:45;;;;;;;4.30;3.05;;;24.80;64.30;;;;;;4993507;28;20400;-63
2021/08/14 07:16:10;;;;;;;4.97;3.40;;;24.80;64.30;;;;;;4991405;28;20402;-63
2021/08/14 07:18:36;;;;;;;4.53;3.30;;;24.80;64.30;;;;;;4988973;28;20434;-63
2021/08/14 07:21:02;;;;;;;3.88;3.38;;;24.80;64.30;;;;;;4989514;28;20398;-64
2021/08/14 07:23:28;;;;;;;4.00;3.25;;;24.80;64.30;;;;;;4995198;28;20413;-63
2021/08/14 07:25:54;;;;;;;4.82;3.35;;;24.80;64.20;;;;;;4989542;28;20385;-63
2021/08/14 07:28:20;;;;;;;3.80;3.33;;;24.80;64.30;;;;;;4989960;28;20989;-63
2021/08/14 07:30:47;;;;;;;4.47;3.15;;;24.80;64.20;;;;;;4989737;28;20561;-64
2021/08/14 07:33:16;;;;;;;5.40;3.30;;;24.80;64.20;;;;;;4990220;28;20393;-64
2021/08/14 07:35:43;;;;;;;4.03;3.05;;;24.80;64.20;;;;;;4987838;28;20547;-64
2021/08/14 07:38:08;;;;;;;4.53;3.20;;;24.80;64.20;;;;;;4984277;28;20481;-63
2021/08/14 07:40:34;;;;;;;4.33;3.23;;;24.80;64.20;;;;;;4983994;28;20398;-64
2021/08/14 07:43:01;;;;;;;3.40;3.10;;;24.80;64.20;;;;;;4990799;28;20439;-64
2021/08/14 07:45:26;;;;;;;3.42;2.90;;;24.80;64.20;;;;;;4996065;28;20422;-64
2021/08/14 07:47:52;;;;;;;4.10;3.23;;;24.80;64.10;;;;;;4995236;28;20429;-64
2021/08/14 07:50:26;;;;;;;3.83;2.97;;;24.90;64.70;;;;;;4988656;28;20568;-63
2021/08/14 07:52:53;;;;;;;4.47;3.40;;;24.90;64.10;;;;;;4991516;28;20464;-64
2021/08/14 07:55:19;;;;;;;5.03;3.45;;;24.90;64.20;;;;;;4991078;28;20418;-63
2021/08/14 07:57:45;;;;;;;4.47;3.42;;;24.90;64.10;;;;;;4985379;28;20486;-64
2021/08/14 08:00:16;;;;;;;4.47;3.20;;;24.90;64.10;;;;;;4987144;28;20744;-64
2021/08/14 08:02:43;;;;;;;4.65;3.20;;;24.90;64.10;;;;;;4988536;28;20625;-64
2021/08/14 08:05:09;;;;;;;5.32;3.50;;;24.90;64.10;;;;;;4992459;28;20409;-63
2021/08/14 08:07:37;;;;;;;4.35;3.40;;;24.90;64.10;;;;;;4993006;28;20527;-64
2021/08/14 08:10:09;;;;;;;4.22;3.45;;;24.90;64.20;;;;;;4992264;28;20433;-63
2021/08/14 08:12:35;;;;;;;4.30;3.20;;;24.90;64.00;;;;;;4992391;28;20473;-64
2021/08/14 08:15:00;;;;;;;4.77;3.30;;;24.90;64.00;;;;;;4988926;28;20481;-63
2021/08/14 08:17:26;;;;;;;3.72;3.13;;;24.90;64.10;;;;;;4992704;28;20481;-64
2021/08/14 08:19:52;;;;;;;3.97;3.33;;;24.90;64.00;;;;;;4993592;28;20793;-63
2021/08/14 08:22:18;;;;;;;4.65;3.30;;;24.90;64.00;;;;;;4982792;28;20394;-64
2021/08/14 08:24:43;;;;;;;5.57;3.13;;;24.90;64.00;;;;;;4990156;28;20457;-64
2021/08/14 08:27:09;;;;;;;4.38;3.53;;;24.90;64.00;;;;;;4988753;28;20456;-63
2021/08/14 08:29:35;;;;;;;4.18;3.30;;;24.90;64.00;;;;;;4984492;28;20395;-64
2021/08/14 08:32:00;;;;;;;4.38;3.08;;;24.90;64.00;;;;;;4987659;28;20793;-63
2021/08/14 08:34:26;;;;;;;4.63;3.33;;;24.90;64.00;;;;;;4988943;28;20442;-64
2021/08/14 08:36:53;;;;;;;4.20;3.10;;;25.00;64.00;;;;;;4993919;28;20384;-63
2021/08/14 08:39:19;;;;;;;3.97;3.17;;;25.00;64.00;;;;;;4990742;28;20489;-64
2021/08/14 08:41:44;;;;;;;5.10;3.63;;;25.00;64.00;;;;;;4994354;28;20472;-63
2021/08/14 08:44:10;;;;;;;3.92;3.08;;;25.00;64.00;;;;;;4993955;28;20429;-63
2021/08/14 08:46:38;;;;;;;4.93;3.63;;;25.00;64.00;;;;;;4988524;28;20396;-64
2021/08/14 08:49:04;;;;;;;3.75;3.35;;;25.00;64.00;;;;;;4991863;28;20481;-64
2021/08/14 08:51:31;;;;;;;4.07;3.50;;;25.00;64.00;;;;;;4991982;28;20438;-64
2021/08/14 08:53:58;;;;;;;4.78;3.50;;;25.00;63.90;;;;;;4985835;28;20401;-63
2021/08/14 08:56:23;;;;;;;5.25;3.67;;;25.00;63.90;;;;;;4988126;28;20573;-64
2021/08/14 08:58:49;;;;;;;4.27;3.70;;;25.00;64.00;;;;;;4993393;28;20421;-63
2021/08/14 09:01:15;;;;;;;5.10;3.50;;;25.00;64.00;;;;;;4990635;28;20401;-64
2021/08/14 09:03:41;;;;;;;4.57;3.45;;;25.00;63.90;;;;;;4983529;28;20491;-64
2021/08/14 09:06:07;;;;;;;4.30;3.40;;;25.00;63.90;;;;;;4997545;28;20392;-63
2021/08/14 09:08:32;;;;;;;4.72;3.78;;;25.00;63.90;;;;;;4985802;28;20417;-63
2021/08/14 09:11:13;;;;;;;4.97;3.73;;;25.00;64.00;;;;;;4992160;28;20438;-63
2021/08/14 09:13:40;;;;;;;4.40;3.42;;;25.00;63.90;;;;;;4992200;28;20404;-63
2021/08/14 09:16:23;;;;;;;4.60;3.40;;;25.00;63.80;;;;;;4997059;28;20392;-63
2021/08/14 09:18:56;;;;;;;4.55;3.40;;;25.00;63.80;;;;;;4995403;28;20487;-64
2021/08/14 09:21:39;;;;;;;4.22;3.47;;;25.00;63.80;;;;;;4988270;28;20421;-63
2021/08/14 09:24:07;;;;;;;4.72;3.60;;;25.00;63.90;;;;;;4990601;28;20947;-64
2021/08/14 09:26:38;;;;;;;4.75;3.65;;;25.00;63.90;;;;;;4994758;28;20395;-63
2021/08/14 09:29:05;;;;;;;5.07;3.58;;;25.00;63.80;;;;;;4992770;28;21315;-63
2021/08/14 09:31:51;;;;;;;4.40;3.60;;;25.00;63.80;;;;;;4994953;28;20398;-63
2021/08/14 09:34:22;;;;;;;4.25;3.55;;;25.00;63.80;;;;;;4989037;28;20759;-64
2021/08/14 09:36:59;;;;;;;4.65;3.50;;;25.00;63.80;;;;;;4997329;28;20769;-64
2021/08/14 09:39:25;;;;;;;4.40;3.60;;;25.00;63.80;;;;;;4995987;28;20404;-64
2021/08/14 09:42:20;;;;;;;5.53;3.58;;;25.00;63.80;;;;;;4991008;28;20397;-63
2021/08/14 09:45:16;;;;;;;4.68;3.80;;;25.00;63.80;;;;;;4989837;28;20423;-63
2021/08/14 09:47:44;;;;;;;4.60;3.70;;;25.00;63.90;;;;;;4992358;28;21038;-64
2021/08/14 09:50:10;;;;;;;4.85;3.70;;;25.00;63.90;;;;;;4990353;28;20395;-64
2021/08/14 09:52:36;;;;;;;4.50;3.65;;;25.00;63.90;;;;;;4990852;28;20480;-63
2021/08/14 09:55:03;;;;;;;4.47;3.70;;;25.00;63.80;;;;;;4989947;28;20886;-64
2021/08/14 09:57:28;;;;;;;5.40;3.63;;;25.00;63.80;;;;;;4991224;28;20474;-63
2021/08/14 09:59:54;;;;;;;4.53;3.77;;;25.00;63.80;;;;;;4991232;28;20386;-63
2021/08/14 10:02:28;;;;;;;4.10;3.70;;;25.00;63.80;;;;;;4990735;28;20395;-63
2021/08/14 10:04:56;;;;;;;4.50;3.70;;;25.00;63.80;;;;;;4990603;28;20401;-63
2021/08/14 10:07:23;;;;;;;4.77;3.70;;;25.00;63.70;;;;;;4997581;28;20624;-63
2021/08/14 10:09:49;;;;;;;4.88;3.97;;;25.00;63.80;;;;;;4990775;28;20780;-64
2021/08/14 10:12:16;;;;;;;5.30;3.85;;;25.00;63.70;;;;;;4984950;28;20394;-64
2021/08/14 10:14:45;;;;;;;4.25;3.85;;;25.00;63.80;;;;;;4991279;28;20401;-64
2021/08/14 10:17:12;;;;;;;4.65;3.40;;;25.00;63.70;;;;;;4990463;28;20504;-63
2021/08/14 10:19:38;;;;;;;5.00;3.88;;;25.00;63.70;;;;;;4984611;28;20909;-64
2021/08/14 10:22:06;;;;;;;4.20;3.55;;;25.00;63.70;;;;;;4990637;28;20452;-63
2021/08/14 10:24:40;;;;;;;3.88;3.50;;;25.00;63.70;;;;;;4989492;28;20397;-64
2021/08/14 10:27:10;;;;;;;4.65;3.90;;;25.00;63.70;;;;;;4993566;28;20406;-63
2021/08/14 10:29:42;;;;;;;5.20;3.83;;;25.00;63.70;;;;;;4984811;28;20473;-63
2021/08/14 10:32:08;;;;;;;5.43;3.75;;;25.00;63.70;;;;;;4996307;28;20407;-63
2021/08/14 10:34:34;;;;;;;4.80;3.80;;;25.00;63.60;;;;;;4990171;28;20389;-63
2021/08/14 10:37:01;;;;;;;4.27;3.73;;;25.00;63.70;;;;;;4984724;28;20429;-64
2021/08/14 10:39:30;;;;;;;5.22;3.90;;;25.00;63.60;;;;;;4992426;28;20417;-64
2021/08/14 10:42:05;;;;;;;4.70;4.20;;;25.00;63.70;;;;;;4991597;28;20403;-64
2021/08/14 10:44:38;;;;;;;4.30;3.90;;;25.00;63.60;;;;;;4982838;28;20403;-63
2021/08/14 10:47:05;;;;;;;4.88;4.18;;;25.10;63.60;;;;;;5005386;28;20943;-63
2021/08/14 10:49:34;;;;;;;4.30;3.90;;;25.00;63.60;;;;;;4990349;28;20442;-63
2021/08/14 10:52:03;;;;;;;4.47;3.85;;;25.10;63.60;;;;;;5007323;28;20830;-64
2021/08/14 10:54:28;;;;;;;4.57;3.92;;;25.10;63.60;;;;;;4991855;28;20472;-64
2021/08/14 10:57:08;;;;;;;4.33;3.83;;;25.10;63.60;;;;;;4989808;28;20454;-64
2021/08/14 10:59:39;;;;;;;4.97;3.78;;;25.10;63.60;;;;;;4990675;28;20448;-63
2021/08/14 11:02:08;;;;;;;5.22;4.22;;;25.10;63.60;;;;;;4990213;28;20392;-64
2021/08/14 11:04:38;;;;;;;4.95;3.95;;;25.10;63.50;;;;;;4989613;28;20395;-64
2021/08/14 11:07:19;;;;;;;6.47;4.55;;;25.10;63.60;;;;;;4989987;28;20494;-63
2021/08/14 11:09:54;;;;;;;4.50;4.00;;;25.10;63.50;;;;;;4989695;28;20414;-63
2021/08/14 11:12:55;;;;;;;4.55;4.05;;;25.10;63.50;;;;;;4992335;28;20386;-64
2021/08/14 11:15:39;;;;;;;5.25;4.18;;;25.10;63.50;;;;;;5000374;28;20922;-63
2021/08/14 11:18:05;;;;;;;4.75;4.00;;;25.10;63.50;;;;;;4988738;28;20454;-63
2021/08/14 11:20:40;;;;;;;5.30;4.35;;;25.10;63.40;;;;;;4987117;28;20406;-63
2021/08/14 11:23:22;;;;;;;5.43;4.05;;;25.10;63.40;;;;;;4993048;28;20390;-63
2021/08/14 11:25:48;;;;;;;6.03;4.10;;;25.10;63.40;;;;;;4991454;28;20934;-63
2021/08/14 11:28:19;;;;;;;4.67;3.80;;;25.20;63.40;;;;;;4983729;28;20406;-63
2021/08/14 11:30:46;;;;;;;5.55;3.70;;;25.20;63.40;;;;;;4989073;28;20738;-64
2021/08/14 11:33:12;;;;;;;4.95;4.18;;;25.20;63.40;;;;;;4995378;28;20885;-63
2021/08/14 11:35:40;;;;;;;4.75;4.05;;;25.20;63.40;;;;;;4991669;28;20406;-64
2021/08/14 11:38:11;;;;;;;5.73;4.00;;;25.20;63.40;;;;;;4991342;28;20936;-64
2021/08/14 11:40:42;;;;;;;5.50;4.00;;;25.20;63.50;;;;;;4988959;28;20402;-64
2021/08/14 11:43:16;;;;;;;6.30;3.63;;;25.20;63.60;;;;;;4989039;28;20396;-64
2021/08/14 11:45:44;;;;;;;10.32;4.30;;;25.30;63.60;;;;;;4990605;28;20494;-64
2021/08/14 11:48:11;;;;;;;7.13;4.67;;;25.30;63.80;;;;;;4990394;28;21001;-64
2021/08/14 11:50:43;;;;;;;5.70;4.30;;;25.30;64.40;;;;;;4990667;28;20897;-64
2021/08/14 11:53:11;;;;;;;6.88;4.32;;;25.30;64.40;;;;;;4990590;28;20407;-64
2021/08/14 11:55:37;;;;;;;11.55;4.75;;;25.40;64.70;;;;;;4994736;28;20396;-64
2021/08/14 11:58:04;;;;;;;8.20;4.97;;;25.40;64.70;;;;;;4988421;28;20427;-64
2021/08/14 12:00:36;;;;;;;7.55;4.60;;;25.40;65.10;;;;;;4988175;28;21532;-63
2021/08/14 12:03:06;;;;;;;6.90;4.83;;;25.40;64.70;;;;;;4985417;28;20452;-64
2021/08/14 12:05:33;;;;;;;6.72;4.55;;;25.40;64.70;;;;;;4987571;28;20391;-64
2021/08/14 12:08:01;;;;;;;6.95;4.60;;;25.40;64.70;;;;;;4984758;28;20422;-65
2021/08/14 12:10:27;;;;;;;6.47;4.60;;;25.40;64.70;;;;;;4984659;28;20382;-64
2021/08/14 12:12:56;;;;;;;8.23;4.97;;;25.50;65.40;;;;;;4989362;28;20396;-63
2021/08/14 12:15:22;;;;;;;7.78;4.85;;;25.50;64.80;;;;;;4986008;28;20759;-64
2021/08/14 12:17:47;;;;;;;6.43;4.65;;;25.50;64.80;;;;;;4983291;28;20437;-64
2021/08/14 12:20:13;;;;;;;8.90;4.57;;;25.50;64.70;;;;;;4989228;28;20450;-64
2021/08/14 12:22:39;;;;;;;7.13;4.50;;;25.50;64.60;;;;;;4986672;28;20452;-64
2021/08/14 12:25:22;;;;;;;7.93;4.88;;;25.50;64.50;;;;;;4983832;28;21275;-64
2021/08/14 12:27:49;;;;;;;6.40;4.45;;;25.50;64.40;;;;;;4986365;28;20875;-64
2021/08/14 12:30:20;;;;;;;6.82;4.40;;;25.60;64.40;;;;;;4982746;28;20456;-64
2021/08/14 12:32:47;;;;;;;5.68;4.32;;;25.60;64.30;;;;;;4987627;28;20390;-64
2021/08/14 12:35:16;;;;;;;7.10;4.28;;;25.60;64.30;;;;;;4984504;28;20399;-64
2021/08/14 12:37:42;;;;;;;7.17;4.40;;;25.60;64.20;;;;;;4999667;28;20419;-63
2021/08/14 12:40:10;;;;;;;7.03;4.20;;;25.60;64.20;;;;;;4986362;28;20402;-64
2021/08/14 12:42:37;;;;;;;6.00;4.40;;;25.60;64.20;;;;;;5020958;28;20413;-63
2021/08/14 12:45:12;;;;;;;5.85;4.15;;;25.60;64.10;;;;;;4995194;28;20403;-63
2021/08/14 12:47:38;;;;;;;7.85;4.15;;;25.60;64.00;;;;;;4989316;28;20472;-64